Daniel Field
KDNL : now visible

Airfield :











YOU CAN JOIN US ON...

 
LOGIN :

Register | Disclaimer

   EN    FR    IT 

 









Legend :    VFR   Marginal VFR   IFR   Intensive IFR   Very Intensive IFR
Visi :
Ceiling :
>= 8 km
>= 3000ft
5 to 8 km
1000 to 3000 ft
1500m to 5 km
500 to 1000 ft
800 to 1500m
200 to 500 ft
< 800m
< 200 ft
Symbols :   Thunderstorms  Fog  Heavy snow  Heavy precipitations  Wind > 20 kt






- Airport Elevation : 423 ft


KDNL - Daniel Field

CURRENT METAR :
  • 191628Z AUTO 33009KT 10SM BKN009 OVC015 18/15 A3025 RMK AO2 CIG 006V011 T01780150

EXPIRED METARs :
  • 191615Z AUTO 33007KT 10SM BKN007 OVC015 18/15 A3025 RMK AO2 CIG 005V010 T01780150
  • 191604Z AUTO 33008KT 10SM BKN006 BKN013 BKN033 18/16 A3024 RMK AO2 T01830156
  • 191500Z AUTO 30006KT 10SM BKN006 BKN012 17/15 A3024 RMK AO2 T01720150
  • 191453Z AUTO 31008KT 10SM SCT007 BKN012 17/15 A3023 RMK AO2 RAE02B20E47 SLP236 P0000 60002 T01720150 51030
  • 191437Z AUTO 32005KT 10SM -RA FEW005 BKN012 OVC090 17/15 A3022 RMK AO2 RAE02B20 P0000 T01720150
  • 191424Z AUTO 31006KT 10SM -RA SCT005 BKN050 OVC110 17/15 A3022 RMK AO2 RAE02B20 P0000 T01670150
  • 191407Z AUTO 31004KT 10SM BKN005 OVC110 17/15 A3021 RMK AO2 RAE02 P0000 T01670150
  • 191353Z AUTO 00000KT 10SM -RA OVC004 17/15 A3021 RMK AO2 SLP227 P0001 T01670150

TAF KDNL
Valid from the 19 at 15:00 until the 20 at 12:00 UTC


191452Z 1915/2012 36006KT 5SM -RA BR BKN005 OVC015
FM191800 03008G15KT 5SM -RA OVC015
FM192100 04008G16KT P6SM BKN025



MET'MAP, your aeronautical weather chart ! - Copyright ORBIFLY December 2007 - Disclaimer

ORBIFLY MET'MAP TEAM :

Programming & Development : Alexandra Zaïnal
Concept & original design : Baudouin d'Aumeries
Assistance for programming : Marc-Olivier Méhu
Technical & hardware support : Manuel Goepfert

Contact : metmap@orbifly.com




SOURCES & CREDITS :

   NOAA       Earth
Advisory